Hauptseite
METAR-TAF:

METAR-TAF

Flughäfen :

Flugplatz Hamburg-Finkenwerder

Finkenwerder, Deutschland

Breite: 53-32N, Länge: 009-50E, Höhe: 5 m

Beobachtung

Neuester Wetterbericht von vor 33 Minuten, um 17:20 UTC
Wind 10 kt aus Süd/Südwest
Temperatur 2°C
Luftfeuchtigkeit 80%
Luftdruck 1016 hPa
Sichtweite 10 km oder mehr
Geschlossene Wolkendecke in der Höhe von 1500 ft

METAR: EDHI 301720Z 20010KT 9999 OVC015 02/M01 Q1016

Zeit: 18:53 (17:53 UTC)

Prognose

Neuester Wetterbericht von vor 53 Minuten, um 17:00 UTC
Gültige Prognose vom 30 um 18 UTC bis 30 um 21 UTC
Wind 9 kt aus Süd
Sichtweite 10 km oder mehr
Durchbrochene Bewölkung in der Höhe von 2000 ft
Übergehend zu
vom 30 um 18 UTC bis 30 um 21 UTC
Sichtweite: 4000 m
Durchbrochene Bewölkung in der Höhe von 700 ft
Leichtregen

TAF: EDHI 301700Z 3018/3021 19009KT 9999 BKN020 BECMG 3018/3021 4000 -RA BKN007

Wetterbeobachtungen und Prognosen von mehr als 4000 Flughäfen (METAR und TAF Bericht).

Die verfügbaren Stationen werden durch gelbe und rote Markierungen auf der Karte dargestellt.

Führen Sie die Maus auf sie, um den Namen der Station zu sehen.

Darauf klicken, um die Beobachtung von Wetterbeobachtungen und Prognosen zu sehen.

Um die Karte zu ändern : klicken Sie auf den grünen Tasten mit einem schwarzen Kreuz Zum Vergrößern, auf den grünen Button mit einem Gedankenstrich zu verkleinern, oder auf die grünen Pfeile für benachbarte Karten.


METAR-TAF: